createdAt,value
2023-01-03T00:01:52.454Z,6.30
2023-01-03T00:03:56.138Z,7.18
2023-01-03T00:05:57.668Z,10.68
2023-01-03T00:07:59.115Z,15.32
2023-01-03T00:10:08.315Z,7.70
2023-01-03T00:12:30.425Z,12.68
2023-01-03T00:14:35.545Z,10.98
2023-01-03T00:16:37.145Z,21.95
2023-01-03T00:18:38.617Z,12.20
2023-01-03T00:20:40.077Z,7.80
2023-01-03T00:22:41.591Z,9.00
2023-01-03T00:24:44.485Z,6.43
2023-01-03T00:26:46.495Z,10.05
2023-01-03T00:28:47.933Z,9.57
2023-01-03T00:30:49.470Z,10.05
2023-01-03T00:32:50.980Z,12.48
2023-01-03T00:34:52.550Z,13.68
2023-01-03T00:36:54.573Z,14.55
2023-01-03T00:38:56.657Z,10.07
2023-01-03T00:41:09.992Z,11.02
2023-01-03T00:43:29.421Z,12.68
2023-01-03T00:45:35.055Z,9.30
2023-01-03T00:47:37.037Z,10.13
2023-01-03T00:49:38.493Z,12.10
2023-01-03T00:51:41.640Z,10.35
2023-01-03T00:53:45.651Z,7.72
2023-01-03T00:55:47.460Z,8.27
2023-01-03T00:57:48.910Z,7.82
2023-01-03T00:59:50.470Z,13.57
2023-01-03T01:01:54.214Z,5.80
2023-01-03T01:04:03.087Z,12.52
2023-01-03T01:08:16.476Z,9.10
2023-01-03T01:10:19.616Z,7.63
2023-01-03T01:12:21.091Z,9.52
2023-01-03T01:14:24.673Z,11.35
2023-01-03T01:16:30.097Z,9.50
2023-01-03T01:18:32.022Z,6.93
2023-01-03T01:20:33.465Z,12.38
2023-01-03T01:22:35.250Z,14.15
2023-01-03T01:24:36.792Z,5.65
2023-01-03T01:26:38.707Z,11.80
2023-01-03T01:28:40.443Z,7.28
2023-01-03T01:30:42.100Z,6.95
2023-01-03T01:32:43.620Z,10.05
2023-01-03T01:34:45.109Z,16.33
2023-01-03T01:36:47.329Z,10.02
2023-01-03T01:38:59.872Z,8.00
2023-01-03T01:41:01.842Z,11.32
2023-01-03T01:43:39.278Z,8.63
2023-01-03T01:45:40.855Z,7.63
2023-01-03T01:47:53.513Z,6.70
2023-01-03T01:50:01.312Z,6.10
2023-01-03T01:52:03.469Z,10.32
2023-01-03T01:54:06.939Z,6.45
2023-01-03T01:56:18.960Z,13.93
2023-01-03T01:58:23.009Z,10.35
2023-01-03T02:00:24.474Z,12.68
2023-01-03T02:02:27.416Z,12.68
2023-01-03T02:04:33.865Z,9.77
2023-01-03T02:06:35.606Z,7.88
2023-01-03T02:08:37.402Z,8.45
2023-01-03T02:10:44.783Z,10.48
2023-01-03T02:13:18.942Z,11.25
2023-01-03T02:15:32.771Z,9.65
2023-01-03T02:17:46.173Z,10.75
2023-01-03T02:19:53.588Z,9.85
2023-01-03T02:22:15.413Z,11.45
2023-01-03T02:24:54.599Z,10.63
2023-01-03T02:27:28.229Z,11.10
2023-01-03T02:29:54.349Z,8.68
2023-01-03T02:32:17.763Z,8.02
2023-01-03T02:34:34.563Z,11.07
2023-01-03T02:36:56.931Z,7.93
2023-01-03T02:38:58.347Z,7.72
2023-01-03T02:41:38.243Z,12.20
2023-01-03T02:44:22.735Z,9.93
2023-01-03T02:46:54.477Z,7.45
2023-01-03T02:49:02.089Z,11.40
2023-01-03T02:51:08.690Z,18.33
2023-01-03T02:53:15.175Z,14.45
2023-01-03T02:55:21.747Z,11.85
2023-01-03T02:57:39.371Z,9.25
2023-01-03T02:59:49.453Z,11.75
2023-01-03T03:01:52.585Z,12.82
2023-01-03T03:03:56.874Z,12.23
2023-01-03T03:06:10.463Z,11.05
2023-01-03T03:08:11.975Z,9.38
2023-01-03T03:10:32.281Z,8.13
2023-01-03T03:12:55.753Z,8.77
2023-01-03T03:14:58.602Z,12.13
2023-01-03T03:17:05.691Z,12.45
2023-01-03T03:19:39.581Z,13.73
2023-01-03T03:21:59.969Z,8.95
2023-01-03T03:24:30.468Z,11.75
2023-01-03T03:26:39.001Z,9.73
2023-01-03T03:28:44.353Z,11.23
2023-01-03T03:30:50.381Z,11.27
2023-01-03T03:32:55.963Z,11.48
2023-01-03T03:34:59.557Z,11.35
2023-01-03T03:37:16.807Z,14.43
2023-01-03T03:39:37.349Z,10.60
2023-01-03T03:42:12.899Z,8.45
2023-01-03T03:44:44.650Z,10.88
2023-01-03T03:46:55.105Z,9.18
2023-01-03T03:49:24.139Z,14.27
2023-01-03T03:51:31.260Z,14.75
2023-01-03T03:53:35.547Z,12.77
2023-01-03T03:55:41.637Z,11.93
2023-01-03T03:57:55.771Z,10.65
2023-01-03T04:00:05.293Z,9.65
2023-01-03T04:02:08.643Z,12.20
2023-01-03T04:04:15.513Z,8.52
2023-01-03T04:06:28.239Z,8.50
2023-01-03T04:08:29.872Z,10.32
2023-01-03T04:10:37.202Z,10.95
2023-01-03T04:12:39.194Z,17.13
2023-01-03T04:14:40.722Z,10.48
2023-01-03T04:16:42.296Z,14.00
2023-01-03T04:18:43.811Z,12.32
2023-01-03T04:20:45.274Z,12.98
2023-01-03T04:22:46.812Z,11.23
2023-01-03T04:24:48.291Z,16.00
2023-01-03T04:26:49.847Z,13.65
2023-01-03T04:28:51.312Z,7.95
2023-01-03T04:30:52.812Z,11.38
2023-01-03T04:32:54.270Z,7.90
2023-01-03T04:34:55.780Z,10.85
2023-01-03T04:36:57.318Z,10.93
2023-01-03T04:38:58.797Z,7.00
2023-01-03T04:41:08.296Z,8.95
2023-01-03T04:43:49.285Z,11.50
2023-01-03T04:45:51.212Z,15.88
2023-01-03T04:47:53.377Z,9.18
2023-01-03T04:49:54.820Z,7.57
2023-01-03T04:51:56.259Z,8.93
2023-01-03T04:53:57.858Z,8.90
2023-01-03T04:55:59.395Z,12.32
2023-01-03T04:58:01.104Z,11.05
2023-01-03T05:00:02.791Z,7.68
2023-01-03T05:02:04.724Z,9.75
2023-01-03T05:04:06.387Z,10.98
2023-01-03T05:06:09.219Z,11.18
2023-01-03T05:08:12.321Z,13.45
2023-01-03T05:10:13.911Z,16.83
2023-01-03T05:12:15.433Z,11.68
2023-01-03T05:14:16.926Z,11.30
2023-01-03T05:16:18.447Z,10.48
2023-01-03T05:18:20.003Z,10.65
2023-01-03T05:20:41.127Z,13.00
2023-01-03T05:23:01.080Z,14.13
2023-01-03T05:25:21.055Z,9.20
2023-01-03T05:27:22.747Z,16.38
2023-01-03T05:29:24.284Z,11.98
2023-01-03T05:31:25.807Z,11.10
2023-01-03T05:33:28.192Z,11.38
2023-01-03T05:35:29.648Z,11.35
2023-01-03T05:37:31.142Z,10.38
2023-01-03T05:39:32.589Z,11.00
2023-01-03T05:41:52.373Z,11.40
2023-01-03T05:43:53.820Z,13.70
2023-01-03T05:45:55.319Z,14.63
2023-01-03T05:47:57.509Z,13.68
2023-01-03T05:49:58.957Z,11.98
2023-01-03T05:52:00.441Z,15.60
2023-01-03T05:54:01.978Z,12.02
2023-01-03T05:56:06.988Z,11.77
2023-01-03T05:58:09.978Z,13.45
2023-01-03T06:00:12.235Z,14.45
2023-01-03T06:02:13.806Z,12.80
2023-01-03T06:04:15.440Z,15.30
2023-01-03T06:06:17.140Z,12.98
2023-01-03T06:08:18.662Z,23.65
2023-01-03T06:10:20.164Z,16.17
2023-01-03T06:12:21.714Z,11.95
2023-01-03T06:14:23.187Z,20.05
2023-01-03T06:16:43.872Z,13.15
2023-01-03T06:18:45.477Z,14.63
2023-01-03T06:20:46.968Z,17.45
2023-01-03T06:22:48.561Z,12.52
2023-01-03T06:24:50.077Z,11.52
2023-01-03T06:26:51.535Z,19.30
2023-01-03T06:28:53.291Z,14.45
2023-01-03T06:30:55.473Z,14.45
2023-01-03T06:32:56.975Z,18.65
2023-01-03T06:34:58.423Z,15.32
2023-01-03T06:36:59.889Z,20.65
2023-01-03T06:39:01.472Z,16.50
2023-01-03T06:41:03.783Z,20.65
2023-01-03T06:43:05.341Z,22.48
2023-01-03T06:45:25.863Z,20.15
2023-01-03T06:47:45.972Z,19.00
2023-01-03T06:50:05.662Z,18.35
2023-01-03T06:52:32.765Z,19.88
2023-01-03T06:54:36.685Z,24.25
2023-01-03T06:56:38.136Z,21.48
2023-01-03T06:58:39.618Z,19.95
2023-01-03T07:00:44.217Z,26.73
2023-01-03T07:02:45.751Z,22.05
2023-01-03T07:04:47.319Z,24.80
2023-01-03T07:06:48.910Z,22.50
2023-01-03T07:08:51.436Z,22.17
2023-01-03T07:10:54.521Z,21.30
2023-01-03T07:13:14.594Z,22.00
2023-01-03T07:15:16.036Z,26.33
2023-01-03T07:17:17.999Z,25.02
2023-01-03T07:19:20.081Z,24.33
2023-01-03T07:21:25.968Z,25.92
2023-01-03T07:23:27.453Z,26.30
2023-01-03T07:25:28.950Z,23.60
2023-01-03T07:27:30.401Z,22.88
2023-01-03T07:29:31.904Z,24.80
2023-01-03T07:31:34.628Z,27.38
2023-01-03T07:33:39.083Z,26.55
2023-01-03T07:35:40.729Z,27.88
2023-01-03T07:37:42.218Z,33.03
2023-01-03T07:39:43.697Z,29.50
2023-01-03T07:42:03.653Z,27.30
2023-01-03T07:44:05.121Z,35.45
2023-01-03T07:46:24.204Z,30.75
2023-01-03T07:48:25.765Z,30.48
2023-01-03T07:50:27.234Z,31.42
2023-01-03T07:52:28.726Z,33.40
2023-01-03T07:54:30.232Z,33.08
2023-01-03T07:56:31.752Z,33.15
2023-01-03T07:58:33.724Z,28.85
2023-01-03T08:00:35.216Z,34.70
2023-01-03T08:02:36.743Z,35.35
2023-01-03T08:04:38.345Z,31.05
2023-01-03T08:06:40.330Z,31.02
2023-01-03T08:08:42.625Z,31.17
2023-01-03T08:11:02.584Z,32.85
2023-01-03T08:13:19.914Z,31.15
2023-01-03T08:15:21.921Z,35.47
2023-01-03T08:17:23.356Z,29.70
2023-01-03T08:19:25.325Z,30.13
2023-01-03T08:21:26.768Z,29.63
2023-01-03T08:23:30.064Z,28.90
2023-01-03T08:25:31.599Z,32.72
2023-01-03T08:27:33.060Z,30.45
2023-01-03T08:29:34.549Z,31.00
2023-01-03T08:31:40.477Z,29.83
2023-01-03T08:33:48.988Z,29.15
2023-01-03T08:35:58.253Z,30.77
2023-01-03T08:38:04.374Z,34.28
2023-01-03T08:40:06.553Z,33.60
2023-01-03T08:42:09.766Z,32.42
2023-01-03T08:44:11.960Z,36.20
2023-01-03T08:46:16.221Z,30.55
2023-01-03T08:48:20.799Z,30.10
2023-01-03T08:50:22.326Z,33.80
2023-01-03T08:52:23.964Z,29.67
2023-01-03T08:54:25.495Z,30.48
2023-01-03T08:56:27.056Z,27.38
2023-01-03T08:58:28.558Z,27.70
2023-01-03T09:00:30.063Z,30.63
2023-01-03T09:02:34.528Z,29.10
2023-01-03T09:04:36.489Z,28.80
2023-01-03T09:06:38.214Z,27.02
2023-01-03T09:08:39.708Z,26.05
2023-01-03T09:10:47.175Z,29.50
2023-01-03T09:12:48.883Z,37.30
2023-01-03T09:14:50.440Z,30.52
2023-01-03T09:16:51.978Z,35.25
2023-01-03T09:18:53.504Z,30.17
2023-01-03T09:20:55.022Z,31.75
2023-01-03T09:22:56.481Z,29.80
2023-01-03T09:24:58.008Z,32.10
2023-01-03T09:27:00.173Z,30.15
2023-01-03T09:29:01.968Z,35.08
2023-01-03T09:31:04.050Z,34.75
2023-01-03T09:33:05.834Z,31.35
2023-01-03T09:35:08.293Z,29.95
2023-01-03T09:37:09.927Z,33.00
2023-01-03T09:39:11.448Z,30.45
2023-01-03T09:41:21.914Z,33.28
2023-01-03T09:43:29.273Z,31.27
2023-01-03T09:45:34.030Z,32.50
2023-01-03T09:47:38.388Z,27.92
2023-01-03T09:49:57.691Z,31.15
2023-01-03T09:52:20.395Z,31.25
2023-01-03T09:54:54.182Z,35.95
2023-01-03T09:57:14.504Z,30.10
2023-01-03T09:59:37.000Z,30.85
2023-01-03T10:02:25.103Z,31.55
2023-01-03T10:04:48.637Z,34.60
2023-01-03T10:07:18.399Z,37.53
2023-01-03T10:09:32.693Z,35.83
2023-01-03T10:12:04.923Z,41.40
2023-01-03T10:14:40.363Z,38.78
2023-01-03T10:16:55.307Z,32.85
2023-01-03T10:19:11.943Z,39.50
2023-01-03T10:21:36.381Z,39.38
2023-01-03T10:23:37.902Z,37.15
2023-01-03T10:25:41.680Z,35.90
2023-01-03T10:27:51.355Z,42.67
2023-01-03T10:29:59.845Z,39.38
2023-01-03T10:32:34.780Z,40.25
2023-01-03T10:34:38.625Z,38.95
2023-01-03T10:36:40.144Z,36.90
2023-01-03T10:38:49.364Z,43.05
2023-01-03T10:40:55.637Z,38.95
2023-01-03T10:42:57.129Z,38.70
2023-01-03T10:45:10.437Z,36.88
2023-01-03T10:47:17.199Z,38.83
2023-01-03T10:49:30.131Z,43.78
2023-01-03T10:51:43.180Z,32.05
2023-01-03T10:53:44.844Z,33.53
2023-01-03T10:55:52.321Z,33.17
2023-01-03T10:57:56.523Z,32.20
2023-01-03T10:59:58.022Z,38.65
2023-01-03T11:02:16.679Z,36.45
2023-01-03T11:04:19.947Z,41.40
2023-01-03T11:06:21.600Z,34.13
2023-01-03T11:08:45.363Z,34.72
2023-01-03T11:11:00.052Z,31.45
2023-01-03T11:13:01.563Z,36.70
2023-01-03T11:15:37.899Z,35.45
2023-01-03T11:17:52.810Z,38.17
2023-01-03T11:19:55.387Z,39.80
2023-01-03T11:22:06.887Z,37.35
2023-01-03T11:24:31.485Z,32.72
2023-01-03T11:26:48.953Z,27.33
2023-01-03T11:29:08.176Z,28.38
2023-01-03T11:31:26.582Z,25.17
2023-01-03T11:33:37.162Z,26.55
2023-01-03T11:35:59.145Z,30.10
2023-01-03T11:38:20.176Z,30.83
2023-01-03T11:40:21.596Z,30.50
2023-01-03T11:42:45.014Z,33.28
2023-01-03T11:45:20.037Z,28.73
2023-01-03T11:47:30.591Z,29.05
2023-01-03T11:50:14.515Z,25.85
2023-01-03T11:52:27.911Z,28.65
2023-01-03T11:54:53.156Z,27.13
2023-01-03T11:56:58.538Z,26.52
2023-01-03T11:59:27.931Z,34.05
2023-01-03T12:02:07.253Z,27.33
2023-01-03T12:04:26.548Z,31.83
2023-01-03T12:07:14.220Z,30.83
2023-01-03T12:09:22.321Z,28.52
2023-01-03T12:11:36.630Z,29.83
2023-01-03T12:13:53.369Z,27.42
2023-01-03T12:16:20.843Z,27.23
2023-01-03T12:18:28.708Z,30.85
2023-01-03T12:20:38.740Z,29.37
2023-01-03T12:22:47.942Z,30.58
2023-01-03T12:25:02.557Z,32.70
2023-01-03T12:27:23.648Z,33.17
2023-01-03T12:31:47.519Z,31.83
2023-01-03T12:33:54.443Z,31.20
2023-01-03T12:36:33.179Z,29.27
2023-01-03T12:38:45.000Z,30.00
2023-01-03T12:40:46.392Z,28.45
2023-01-03T12:43:12.008Z,33.20
2023-01-03T12:45:29.658Z,31.50
2023-01-03T12:47:49.882Z,29.50
2023-01-03T12:50:01.718Z,30.38
2023-01-03T12:52:03.244Z,31.05
2023-01-03T12:54:22.964Z,32.42
2023-01-03T12:56:30.461Z,29.00
2023-01-03T12:58:39.820Z,28.48
2023-01-03T13:00:58.609Z,30.88
2023-01-03T13:03:41.482Z,29.85
2023-01-03T13:05:50.918Z,26.42
2023-01-03T13:08:32.905Z,28.55
2023-01-03T13:10:38.391Z,30.90
2023-01-03T13:12:43.604Z,29.77
2023-01-03T13:15:07.658Z,28.13
2023-01-03T13:17:18.102Z,35.15
2023-01-03T13:19:22.605Z,30.50
2023-01-03T13:21:49.891Z,32.58
2023-01-03T13:23:59.312Z,32.15
2023-01-03T13:26:06.886Z,30.98
2023-01-03T13:28:29.862Z,29.35
2023-01-03T13:30:34.922Z,29.88
2023-01-03T13:33:11.978Z,29.38
2023-01-03T13:35:16.148Z,29.98
2023-01-03T13:37:18.748Z,28.17
2023-01-03T13:39:40.204Z,34.67
2023-01-03T13:41:41.772Z,32.97
2023-01-03T13:43:47.206Z,28.45
2023-01-03T13:45:50.416Z,31.83
2023-01-03T13:47:54.284Z,32.72
2023-01-03T13:49:55.810Z,26.45
2023-01-03T13:51:58.685Z,28.15
2023-01-03T13:54:01.744Z,36.47
2023-01-03T13:56:15.093Z,31.98
2023-01-03T13:58:40.250Z,31.50
2023-01-03T14:00:41.927Z,28.30
2023-01-03T14:03:05.673Z,28.38
2023-01-03T14:05:30.373Z,27.80
2023-01-03T14:07:37.578Z,35.88
2023-01-03T14:10:01.809Z,27.77
2023-01-03T14:12:48.337Z,27.50
2023-01-03T14:14:55.448Z,32.58
2023-01-03T14:16:58.684Z,26.92
2023-01-03T14:19:22.867Z,32.90
2023-01-03T14:21:31.151Z,33.60
2023-01-03T14:23:59.746Z,27.80
2023-01-03T14:26:04.674Z,34.60
2023-01-03T14:28:20.703Z,24.85
2023-01-03T14:30:28.326Z,31.52
2023-01-03T14:32:35.960Z,32.28
2023-01-03T14:34:41.206Z,30.33
2023-01-03T14:36:47.187Z,38.13
2023-01-03T14:38:54.721Z,37.97
2023-01-03T14:41:00.134Z,32.58
2023-01-03T14:43:05.107Z,31.48
2023-01-03T14:45:08.756Z,31.42
2023-01-03T14:47:17.561Z,31.02
2023-01-03T14:49:45.013Z,31.48
2023-01-03T14:51:46.891Z,35.65
2023-01-03T14:53:49.984Z,35.03
2023-01-03T14:55:53.857Z,33.47
2023-01-03T14:57:56.904Z,30.40
2023-01-03T15:00:00.793Z,31.98
2023-01-03T15:02:02.771Z,36.75
2023-01-03T15:04:05.208Z,30.35
2023-01-03T15:06:25.043Z,32.38
2023-01-03T15:08:31.521Z,30.95
2023-01-03T15:10:43.575Z,28.83
2023-01-03T15:12:57.564Z,33.10
2023-01-03T15:15:19.746Z,36.33
2023-01-03T15:17:26.303Z,31.13
2023-01-03T15:19:30.355Z,33.88
2023-01-03T15:21:32.088Z,34.58
2023-01-03T15:23:37.063Z,30.73
2023-01-03T15:25:41.492Z,31.58
2023-01-03T15:27:45.315Z,35.58
2023-01-03T15:29:46.828Z,33.88
2023-01-03T15:31:58.504Z,39.08
2023-01-03T15:34:19.572Z,33.88
2023-01-03T15:36:26.406Z,34.70
2023-01-03T15:38:37.101Z,33.65
2023-01-03T15:40:39.963Z,29.45
2023-01-03T15:43:02.614Z,33.33
2023-01-03T15:45:21.300Z,29.55
2023-01-03T15:49:28.473Z,33.35
2023-01-03T15:51:29.957Z,30.83
2023-01-03T15:53:43.246Z,30.90
2023-01-03T15:55:45.922Z,27.30
2023-01-03T15:57:53.758Z,31.25
2023-01-03T15:59:57.699Z,31.63
2023-01-03T16:01:59.507Z,36.72
2023-01-03T16:04:01.088Z,31.98
2023-01-03T16:06:02.988Z,39.35
2023-01-03T16:08:15.654Z,29.15
2023-01-03T16:10:17.338Z,30.88
2023-01-03T16:12:43.913Z,24.95
2023-01-03T16:14:49.309Z,31.27
2023-01-03T16:16:53.408Z,23.85
2023-01-03T16:18:55.698Z,22.63
2023-01-03T16:20:57.264Z,24.98
2023-01-03T16:23:01.784Z,20.17
2023-01-03T16:25:05.541Z,18.65
2023-01-03T16:27:16.822Z,20.25
2023-01-03T16:29:18.505Z,23.15
2023-01-03T16:31:31.934Z,17.35
2023-01-03T16:33:35.761Z,17.10
2023-01-03T16:35:37.279Z,25.90
2023-01-03T16:37:38.764Z,20.13
2023-01-03T16:39:47.399Z,19.52
2023-01-03T16:42:10.276Z,23.90
2023-01-03T16:44:11.807Z,24.10
2023-01-03T16:46:15.929Z,13.43
2023-01-03T16:48:20.921Z,17.73
2023-01-03T16:50:22.896Z,18.10
2023-01-03T16:52:27.962Z,16.17
2023-01-03T16:54:30.258Z,15.77
2023-01-03T16:56:31.716Z,13.45
2023-01-03T16:58:33.354Z,18.83
2023-01-03T17:00:35.553Z,24.65
2023-01-03T17:02:37.148Z,14.88
2023-01-03T17:04:38.860Z,14.00
2023-01-03T17:06:41.156Z,15.70
2023-01-03T17:08:42.942Z,13.88
2023-01-03T17:10:47.044Z,16.20
2023-01-03T17:12:48.616Z,14.30
2023-01-03T17:14:51.121Z,11.50
2023-01-03T17:16:52.642Z,13.30
2023-01-03T17:18:55.971Z,18.85
2023-01-03T17:21:06.841Z,12.60
2023-01-03T17:23:09.135Z,14.43
2023-01-03T17:25:11.578Z,14.05
2023-01-03T17:27:25.053Z,13.35
2023-01-03T17:29:31.425Z,12.50
2023-01-03T17:31:33.169Z,17.08
2023-01-03T17:33:34.695Z,13.15
2023-01-03T17:35:38.478Z,12.82
2023-01-03T17:38:05.669Z,15.55
2023-01-03T17:40:01.890Z,13.98
2023-01-03T17:42:18.988Z,22.35
2023-01-03T17:44:20.481Z,20.77
2023-01-03T17:46:43.244Z,19.67
2023-01-03T17:49:03.116Z,16.60
2023-01-03T17:51:04.718Z,15.80
2023-01-03T17:53:08.553Z,16.25
2023-01-03T17:55:25.710Z,16.15
2023-01-03T17:57:28.095Z,17.92
2023-01-03T17:59:29.712Z,18.25
2023-01-03T18:01:31.337Z,16.10
2023-01-03T18:03:32.961Z,19.95
2023-01-03T18:05:34.631Z,17.90
2023-01-03T18:07:36.193Z,18.90
2023-01-03T18:09:37.863Z,17.83
2023-01-03T18:11:39.330Z,16.88
2023-01-03T18:13:40.897Z,16.67
2023-01-03T18:15:42.388Z,17.15
2023-01-03T18:17:44.987Z,20.23
2023-01-03T18:19:46.437Z,22.75
2023-01-03T18:21:48.281Z,23.45
2023-01-03T18:24:02.503Z,24.52
2023-01-03T18:26:06.710Z,23.55
2023-01-03T18:28:10.333Z,18.25
2023-01-03T18:30:15.846Z,25.30
2023-01-03T18:32:23.247Z,23.88
2023-01-03T18:34:24.814Z,24.23
2023-01-03T18:36:29.165Z,18.60
2023-01-03T18:38:35.516Z,19.77
2023-01-03T18:40:38.079Z,17.40
2023-01-03T18:42:58.445Z,19.38
2023-01-03T18:44:59.963Z,20.00
2023-01-03T18:47:01.761Z,19.55
2023-01-03T18:49:03.283Z,20.33
2023-01-03T18:51:05.011Z,19.65
2023-01-03T18:53:06.546Z,22.58
2023-01-03T18:55:15.154Z,23.05
2023-01-03T18:57:16.633Z,21.65
2023-01-03T18:59:26.670Z,22.55
2023-01-03T19:01:28.322Z,25.60
2023-01-03T19:03:32.059Z,23.95
2023-01-03T19:05:33.637Z,25.42
2023-01-03T19:07:35.984Z,24.25
2023-01-03T19:09:37.579Z,27.20
2023-01-03T19:11:39.848Z,24.15
2023-01-03T19:13:54.512Z,26.30
2023-01-03T19:15:56.832Z,23.70
2023-01-03T19:17:58.428Z,24.98
2023-01-03T19:19:59.972Z,25.42
2023-01-03T19:22:01.908Z,39.00
2023-01-03T19:24:29.726Z,44.20
2023-01-03T19:26:39.923Z,37.00
2023-01-03T19:28:41.655Z,27.38
2023-01-03T19:30:46.464Z,23.35
2023-01-03T19:32:52.580Z,25.65
2023-01-03T19:34:54.230Z,22.48
2023-01-03T19:36:55.817Z,20.13
2023-01-03T19:38:57.365Z,19.25
2023-01-03T19:40:59.026Z,16.30
2023-01-03T19:43:00.767Z,18.23
2023-01-03T19:45:13.468Z,17.77
2023-01-03T19:47:18.190Z,14.13
2023-01-03T19:49:20.853Z,13.77
2023-01-03T19:51:22.310Z,14.82
2023-01-03T19:53:23.794Z,10.70
2023-01-03T19:55:29.138Z,13.52
2023-01-03T19:57:33.792Z,11.57
2023-01-03T19:59:38.199Z,14.48
2023-01-03T20:02:14.372Z,13.70
2023-01-03T20:04:02.370Z,8.80
2023-01-03T20:06:04.701Z,10.13
2023-01-03T20:08:12.022Z,10.93
2023-01-03T20:10:16.887Z,8.40
2023-01-03T20:12:26.839Z,9.38
2023-01-03T20:14:28.921Z,10.27
2023-01-03T20:16:30.437Z,13.10
2023-01-03T20:18:36.208Z,11.77
2023-01-03T20:20:38.130Z,8.25
2023-01-03T20:25:01.892Z,9.45
2023-01-03T20:27:03.756Z,14.27
2023-01-03T20:29:05.526Z,8.07
2023-01-03T20:31:08.372Z,6.80
2023-01-03T20:33:09.899Z,7.43
2023-01-03T20:36:06.590Z,8.50
2023-01-03T20:37:37.668Z,8.25
2023-01-03T20:39:39.163Z,7.75
2023-01-03T20:41:40.653Z,8.70
2023-01-03T20:43:43.381Z,5.18
2023-01-03T20:45:46.247Z,8.43
2023-01-03T20:47:54.251Z,6.82
2023-01-03T20:49:55.769Z,9.45
2023-01-03T20:51:57.343Z,7.07
2023-01-03T20:53:58.822Z,5.57
2023-01-03T20:56:00.285Z,7.57
2023-01-03T20:58:01.949Z,8.10
2023-01-03T21:00:05.138Z,9.57
2023-01-03T21:02:06.954Z,5.43
2023-01-03T21:04:08.642Z,4.35
2023-01-03T21:06:21.887Z,8.40
2023-01-03T21:08:41.649Z,6.22
2023-01-03T21:10:44.111Z,5.28
2023-01-03T21:12:45.680Z,6.30
2023-01-03T21:14:49.509Z,4.47
2023-01-03T21:16:51.151Z,7.32
2023-01-03T21:18:52.807Z,5.53
2023-01-03T21:20:54.318Z,6.43
2023-01-03T21:22:56.061Z,8.15
2023-01-03T21:24:58.016Z,6.28
2023-01-03T21:26:59.552Z,4.90
2023-01-03T21:29:01.132Z,5.55
2023-01-03T21:31:05.374Z,10.30
2023-01-03T21:33:15.966Z,8.10
2023-01-03T21:35:22.717Z,7.35
2023-01-03T21:37:24.229Z,11.05
2023-01-03T21:39:25.693Z,5.35
2023-01-03T21:41:30.030Z,7.75
2023-01-03T21:43:31.548Z,6.95
2023-01-03T21:45:38.156Z,5.30
2023-01-03T21:47:39.833Z,5.57
2023-01-03T21:49:41.338Z,4.03
2023-01-03T21:51:42.773Z,6.05
2023-01-03T21:53:44.494Z,3.63
2023-01-03T21:55:46.885Z,3.70
2023-01-03T21:57:48.537Z,7.32
2023-01-03T21:59:50.011Z,3.65
2023-01-03T22:02:09.893Z,6.85
2023-01-03T22:04:17.238Z,3.70
2023-01-03T22:06:18.751Z,4.47
2023-01-03T22:08:20.214Z,5.57
2023-01-03T22:10:23.721Z,6.85
2023-01-03T22:12:25.191Z,5.20
2023-01-03T22:14:26.686Z,4.97
2023-01-03T22:16:28.333Z,3.25
2023-01-03T22:18:29.831Z,5.63
2023-01-03T22:20:38.048Z,7.53
2023-01-03T22:24:41.989Z,5.55
2023-01-03T22:26:43.455Z,4.70
2023-01-03T22:28:46.391Z,3.70
2023-01-03T22:30:47.829Z,7.22
2023-01-03T22:32:49.472Z,5.55
2023-01-03T22:34:50.991Z,6.57
2023-01-03T22:36:52.456Z,4.55
2023-01-03T22:38:53.948Z,6.07
2023-01-03T22:40:55.396Z,3.67
2023-01-03T22:42:56.862Z,3.15
2023-01-03T22:44:58.330Z,2.67
2023-01-03T22:46:59.872Z,3.80
2023-01-03T22:49:01.385Z,3.72
2023-01-03T22:51:04.798Z,5.75
2023-01-03T22:53:06.883Z,2.88
2023-01-03T22:55:08.590Z,4.47
2023-01-03T22:57:10.048Z,6.15
2023-01-03T22:59:11.596Z,4.57
2023-01-03T23:01:17.963Z,3.58
2023-01-03T23:03:19.519Z,3.63
2023-01-03T23:05:20.975Z,4.65
2023-01-03T23:07:22.435Z,2.63
2023-01-03T23:09:24.132Z,2.67
2023-01-03T23:11:46.153Z,4.35
2023-01-03T23:13:47.637Z,2.38
2023-01-03T23:15:49.312Z,6.32
2023-01-03T23:17:56.925Z,4.05
2023-01-03T23:19:58.414Z,7.15
2023-01-03T23:21:59.935Z,4.55
2023-01-03T23:24:01.583Z,6.72
2023-01-03T23:26:03.924Z,7.07
2023-01-03T23:28:05.438Z,4.85
2023-01-03T23:30:07.544Z,6.03
2023-01-03T23:32:09.018Z,5.13
2023-01-03T23:34:11.592Z,4.45
2023-01-03T23:36:14.201Z,5.78
2023-01-03T23:38:15.794Z,3.63
2023-01-03T23:40:17.424Z,5.70
2023-01-03T23:42:18.923Z,2.17
2023-01-03T23:44:20.409Z,4.35
2023-01-03T23:46:24.291Z,2.47
2023-01-03T23:48:25.790Z,5.57
2023-01-03T23:50:27.280Z,3.80
2023-01-03T23:52:28.721Z,5.05
2023-01-03T23:54:30.217Z,2.78
2023-01-03T23:56:31.708Z,2.45
2023-01-03T23:58:33.253Z,5.93
